createdAt,value
2023-01-21T00:01:20.154Z,77.14
2023-01-21T00:03:48.690Z,77.02
2023-01-21T00:06:18.198Z,76.85
2023-01-21T00:08:46.355Z,76.93
2023-01-21T00:11:16.980Z,77.71
2023-01-21T00:13:45.864Z,76.98
2023-01-21T00:16:14.724Z,75.63
2023-01-21T00:18:43.375Z,76.67
2023-01-21T00:21:11.675Z,76.92
2023-01-21T00:23:41.214Z,77.21
2023-01-21T00:26:12.832Z,77.40
2023-01-21T00:28:43.762Z,77.00
2023-01-21T00:31:13.186Z,75.92
2023-01-21T00:33:41.468Z,76.33
2023-01-21T00:36:13.858Z,76.35
2023-01-21T00:38:43.611Z,76.69
2023-01-21T00:41:14.360Z,75.63
2023-01-21T00:43:44.011Z,75.21
2023-01-21T00:46:12.920Z,75.29
2023-01-21T00:48:41.368Z,75.53
2023-01-21T00:51:09.960Z,76.10
2023-01-21T00:53:41.993Z,76.37
2023-01-21T00:56:14.696Z,76.90
2023-01-21T00:58:44.288Z,76.16
2023-01-21T01:01:16.769Z,75.53
2023-01-21T01:03:46.434Z,75.87
2023-01-21T01:06:18.623Z,76.13
2023-01-21T01:08:49.465Z,75.99
2023-01-21T01:11:21.449Z,76.44
2023-01-21T01:13:49.708Z,75.93
2023-01-21T01:16:18.332Z,75.09
2023-01-21T01:18:47.228Z,75.84
2023-01-21T01:21:19.114Z,77.12
2023-01-21T01:23:47.798Z,76.84
2023-01-21T01:26:19.768Z,76.12
2023-01-21T01:28:48.407Z,75.31
2023-01-21T01:31:19.008Z,75.15
2023-01-21T01:33:48.210Z,74.57
2023-01-21T01:36:19.367Z,74.89
2023-01-21T01:38:47.949Z,74.92
2023-01-21T01:41:20.877Z,75.20
2023-01-21T01:44:27.558Z,75.84
2023-01-21T01:47:00.901Z,75.07
2023-01-21T01:49:29.095Z,75.07
2023-01-21T01:52:04.301Z,74.61
2023-01-21T01:54:39.239Z,75.04
2023-01-21T01:57:13.063Z,74.84
2023-01-21T01:59:44.171Z,74.41
2023-01-21T02:02:17.640Z,74.57
2023-01-21T02:04:51.166Z,74.45
2023-01-21T02:07:23.563Z,74.76
2023-01-21T02:09:55.231Z,75.64
2023-01-21T02:12:25.685Z,76.48
2023-01-21T02:14:53.886Z,75.87
2023-01-21T02:17:44.953Z,74.52
2023-01-21T02:20:59.711Z,74.23
2023-01-21T02:23:57.000Z,74.87
2023-01-21T02:27:06.770Z,74.86
2023-01-21T02:30:12.741Z,75.45
2023-01-21T02:33:20.013Z,75.16
2023-01-21T02:36:02.223Z,75.77
2023-01-21T02:38:35.616Z,76.22
2023-01-21T02:41:14.829Z,76.69
2023-01-21T02:43:54.844Z,76.15
2023-01-21T02:46:32.443Z,75.93
2023-01-21T02:49:08.472Z,76.50
2023-01-21T02:51:36.904Z,76.43
2023-01-21T02:54:15.778Z,76.57
2023-01-21T02:56:45.949Z,75.97
2023-01-21T02:59:14.432Z,74.82
2023-01-21T03:02:03.232Z,75.35
2023-01-21T03:04:54.296Z,75.04
2023-01-21T03:07:30.431Z,75.29
2023-01-21T03:10:10.651Z,75.29
2023-01-21T03:12:50.300Z,75.32
2023-01-21T03:15:45.206Z,75.50
2023-01-21T03:18:21.087Z,76.12
2023-01-21T03:20:56.276Z,76.52
2023-01-21T03:23:30.992Z,75.65
2023-01-21T03:26:01.612Z,75.26
2023-01-21T03:28:37.263Z,74.64
2023-01-21T03:31:11.449Z,74.90
2023-01-21T03:33:46.769Z,74.29
2023-01-21T03:36:29.908Z,74.49
2023-01-21T03:39:04.001Z,74.50
2023-01-21T03:41:40.214Z,74.62
2023-01-21T03:44:08.817Z,74.61
2023-01-21T03:46:45.102Z,74.75
2023-01-21T03:49:22.609Z,75.21
2023-01-21T03:51:58.948Z,75.40
2023-01-21T03:54:27.235Z,75.32
2023-01-21T03:56:55.381Z,74.85
2023-01-21T03:59:23.528Z,74.81
2023-01-21T04:01:51.670Z,74.92
2023-01-21T04:04:19.789Z,74.88
2023-01-21T04:06:47.896Z,75.33
2023-01-21T04:09:17.407Z,75.63
2023-01-21T04:11:45.525Z,76.35
2023-01-21T04:14:13.683Z,75.98
2023-01-21T04:16:41.884Z,75.97
2023-01-21T04:19:10.416Z,76.12
2023-01-21T04:21:38.542Z,76.74
2023-01-21T04:24:07.923Z,76.83
2023-01-21T04:26:37.360Z,77.07
2023-01-21T04:29:05.745Z,76.97
2023-01-21T04:31:33.932Z,77.47
2023-01-21T04:34:02.657Z,77.31
2023-01-21T04:36:30.905Z,77.30
2023-01-21T04:38:59.000Z,76.86
2023-01-21T04:41:27.138Z,76.72
2023-01-21T04:43:56.584Z,77.74
2023-01-21T04:46:24.740Z,76.81
2023-01-21T04:48:53.111Z,77.09
2023-01-21T04:51:21.299Z,76.72
2023-01-21T04:53:49.469Z,76.74
2023-01-21T04:56:17.547Z,76.54
2023-01-21T04:58:45.652Z,76.94
2023-01-21T05:01:15.165Z,76.53
2023-01-21T05:03:43.381Z,76.70
2023-01-21T05:06:11.584Z,76.58
2023-01-21T05:08:39.740Z,76.81
2023-01-21T05:11:09.711Z,77.53
2023-01-21T05:13:37.785Z,77.71
2023-01-21T05:16:09.808Z,77.23
2023-01-21T05:18:40.681Z,76.23
2023-01-21T05:21:09.558Z,77.35
2023-01-21T05:23:37.844Z,76.43
2023-01-21T05:26:06.419Z,76.44
2023-01-21T05:28:34.593Z,76.77
2023-01-21T05:31:04.119Z,76.37
2023-01-21T05:33:33.082Z,76.35
2023-01-21T05:36:04.016Z,76.46
2023-01-21T05:38:33.044Z,76.05
2023-01-21T05:41:03.501Z,75.83
2023-01-21T05:43:32.275Z,75.82
2023-01-21T05:46:00.448Z,75.85
2023-01-21T05:48:30.076Z,76.31
2023-01-21T05:50:58.619Z,76.45
2023-01-21T05:53:28.381Z,77.23
2023-01-21T05:55:58.320Z,77.60
2023-01-21T05:58:26.728Z,77.26
2023-01-21T06:00:54.901Z,77.28
2023-01-21T06:03:23.073Z,77.18
2023-01-21T06:05:51.493Z,77.12
2023-01-21T06:08:20.318Z,77.41
2023-01-21T06:10:49.812Z,77.34
2023-01-21T06:13:18.142Z,78.08
2023-01-21T06:15:46.303Z,78.28
2023-01-21T06:18:14.819Z,78.41
2023-01-21T06:20:42.961Z,78.22
2023-01-21T06:23:11.066Z,78.27
2023-01-21T06:25:39.165Z,79.10
2023-01-21T06:28:11.403Z,78.85
2023-01-21T06:30:39.891Z,78.25
2023-01-21T06:33:08.269Z,77.37
2023-01-21T06:35:36.995Z,77.21
2023-01-21T06:38:05.266Z,76.97
2023-01-21T06:40:33.367Z,77.39
2023-01-21T06:43:01.470Z,77.23
2023-01-21T06:45:30.977Z,77.60
2023-01-21T06:47:59.090Z,77.74
2023-01-21T06:50:27.308Z,77.83
2023-01-21T06:52:55.420Z,77.42
2023-01-21T06:55:23.546Z,77.30
2023-01-21T06:57:51.684Z,77.21
2023-01-21T07:00:20.786Z,77.64
2023-01-21T07:02:50.281Z,77.90
2023-01-21T07:05:20.634Z,77.59
2023-01-21T07:07:48.731Z,76.88
2023-01-21T07:10:17.885Z,76.69
2023-01-21T07:12:46.178Z,76.78
2023-01-21T07:15:14.507Z,77.35
2023-01-21T07:17:42.795Z,77.34
2023-01-21T07:20:13.184Z,77.57
2023-01-21T07:22:41.682Z,77.28
2023-01-21T07:25:10.887Z,77.32
2023-01-21T07:27:39.017Z,77.23
2023-01-21T07:30:09.210Z,77.18
2023-01-21T07:32:37.305Z,77.30
2023-01-21T07:35:06.146Z,77.57
2023-01-21T07:37:35.667Z,77.53
2023-01-21T07:40:03.923Z,77.14
2023-01-21T07:42:32.048Z,76.28
2023-01-21T07:45:02.759Z,75.75
2023-01-21T07:47:31.234Z,75.68
2023-01-21T07:50:04.731Z,76.26
2023-01-21T07:52:35.078Z,76.34
2023-01-21T07:55:03.440Z,76.82
2023-01-21T07:57:31.943Z,76.35
2023-01-21T08:00:00.104Z,75.43
2023-01-21T08:02:28.441Z,74.92
2023-01-21T08:04:56.586Z,74.89
2023-01-21T08:07:24.783Z,75.32
2023-01-21T08:09:54.277Z,76.07
2023-01-21T08:12:22.443Z,76.60
2023-01-21T08:14:50.596Z,76.16
2023-01-21T08:17:18.755Z,75.78
2023-01-21T08:19:46.827Z,75.79
2023-01-21T08:22:14.954Z,75.89
2023-01-21T08:24:43.051Z,75.66
2023-01-21T08:27:12.515Z,76.23
2023-01-21T08:29:40.616Z,76.74
2023-01-21T08:32:08.759Z,77.27
2023-01-21T08:34:37.062Z,76.91
2023-01-21T08:37:05.120Z,77.00
2023-01-21T08:39:33.384Z,77.12
2023-01-21T08:42:01.554Z,76.09
2023-01-21T08:44:31.032Z,75.90
2023-01-21T08:46:59.225Z,76.24
2023-01-21T08:49:27.310Z,76.35
2023-01-21T08:51:55.668Z,76.07
2023-01-21T08:54:23.783Z,75.43
2023-01-21T08:56:51.912Z,75.08
2023-01-21T08:59:27.132Z,74.54
2023-01-21T09:01:57.175Z,75.06
2023-01-21T09:04:25.336Z,74.76
2023-01-21T09:06:53.808Z,75.01
2023-01-21T09:09:22.005Z,74.73
2023-01-21T09:11:50.220Z,75.19
2023-01-21T09:14:18.324Z,75.19
2023-01-21T09:16:49.068Z,74.23
2023-01-21T09:19:18.650Z,74.67
2023-01-21T09:21:46.887Z,75.13
2023-01-21T09:24:15.022Z,74.99
2023-01-21T09:26:44.993Z,74.81
2023-01-21T09:29:13.445Z,74.31
2023-01-21T09:31:41.621Z,74.37
2023-01-21T09:34:11.726Z,73.68
2023-01-21T09:36:41.469Z,73.46
2023-01-21T09:39:09.653Z,73.17
2023-01-21T09:41:42.714Z,73.34
2023-01-21T09:44:26.577Z,73.81
2023-01-21T09:47:01.898Z,72.96
2023-01-21T09:49:37.323Z,73.11
2023-01-21T09:52:27.222Z,72.98
2023-01-21T09:54:56.966Z,72.66
2023-01-21T09:57:54.468Z,73.31
2023-01-21T10:00:37.788Z,72.79
2023-01-21T10:03:21.317Z,71.98
2023-01-21T10:06:12.396Z,72.27
2023-01-21T10:09:00.602Z,72.13
2023-01-21T10:11:46.720Z,71.88
2023-01-21T10:14:52.731Z,72.12
2023-01-21T10:17:35.168Z,71.78
2023-01-21T10:20:14.629Z,71.96
2023-01-21T10:22:52.112Z,72.38
2023-01-21T10:25:32.185Z,71.82
2023-01-21T10:28:07.313Z,71.49
2023-01-21T10:30:41.028Z,72.15
2023-01-21T10:33:21.120Z,71.67
2023-01-21T10:36:30.176Z,71.03
2023-01-21T10:39:09.911Z,71.43
2023-01-21T10:42:26.331Z,71.59
2023-01-21T10:45:05.754Z,71.80
2023-01-21T10:47:44.882Z,72.49
2023-01-21T10:50:29.737Z,71.34
2023-01-21T10:53:07.705Z,71.52
2023-01-21T10:55:56.953Z,71.45
2023-01-21T10:58:42.353Z,70.79
2023-01-21T11:01:19.693Z,70.67
2023-01-21T11:03:52.713Z,70.29
2023-01-21T11:06:24.058Z,69.96
2023-01-21T11:09:02.520Z,70.24
2023-01-21T11:11:34.618Z,70.27
2023-01-21T11:14:04.390Z,69.87
2023-01-21T11:16:43.879Z,69.65
2023-01-21T11:19:16.548Z,69.66
2023-01-21T11:22:04.980Z,69.54
2023-01-21T11:24:43.537Z,68.96
2023-01-21T11:27:22.523Z,68.77
2023-01-21T11:29:52.106Z,69.66
2023-01-21T11:32:24.026Z,69.01
2023-01-21T11:35:02.500Z,68.92
2023-01-21T11:37:33.634Z,69.08
2023-01-21T11:40:07.105Z,68.88
2023-01-21T11:42:48.182Z,68.80
2023-01-21T11:45:36.274Z,68.62
2023-01-21T11:48:21.429Z,68.75
2023-01-21T11:50:49.626Z,68.80
2023-01-21T11:53:20.014Z,68.55
2023-01-21T11:55:51.247Z,68.54
2023-01-21T11:58:25.008Z,68.64
2023-01-21T12:00:57.703Z,68.39
2023-01-21T12:03:32.334Z,67.24
2023-01-21T12:06:01.580Z,66.98
2023-01-21T12:08:34.817Z,67.36
2023-01-21T12:11:07.595Z,67.39
2023-01-21T12:13:45.955Z,67.29
2023-01-21T12:16:35.199Z,67.31
2023-01-21T12:19:36.179Z,66.99
2023-01-21T12:22:43.467Z,67.01
2023-01-21T12:25:29.021Z,67.70
2023-01-21T12:28:19.751Z,68.13
2023-01-21T12:31:03.316Z,68.14
2023-01-21T12:33:47.685Z,68.38
2023-01-21T12:36:22.936Z,68.38
2023-01-21T12:39:09.293Z,68.45
2023-01-21T12:41:41.083Z,68.41
2023-01-21T12:44:27.385Z,68.10
2023-01-21T12:47:03.568Z,68.26
2023-01-21T12:49:55.081Z,68.32
2023-01-21T12:52:31.537Z,68.27
2023-01-21T12:55:13.018Z,68.12
2023-01-21T12:57:52.162Z,68.17
2023-01-21T13:00:25.556Z,68.19
2023-01-21T13:03:04.821Z,68.42
2023-01-21T13:05:45.285Z,67.89
2023-01-21T13:08:49.541Z,68.58
2023-01-21T13:11:22.248Z,68.80
2023-01-21T13:14:03.124Z,68.77
2023-01-21T13:16:33.006Z,68.81
2023-01-21T13:19:01.471Z,69.04
2023-01-21T13:21:42.822Z,69.23
2023-01-21T13:24:18.788Z,69.30
2023-01-21T13:27:02.966Z,69.96
2023-01-21T13:29:47.276Z,70.26
2023-01-21T13:32:37.952Z,69.98
2023-01-21T13:35:24.053Z,70.64
2023-01-21T13:38:06.001Z,70.60
2023-01-21T13:40:51.646Z,70.75
2023-01-21T13:43:54.569Z,71.15
2023-01-21T13:46:49.139Z,71.04
2023-01-21T13:49:54.133Z,71.97
2023-01-21T13:52:32.819Z,72.59
2023-01-21T13:55:25.538Z,72.88
2023-01-21T13:58:05.635Z,73.13
2023-01-21T14:00:39.731Z,72.65
2023-01-21T14:03:25.257Z,72.32
2023-01-21T14:06:01.014Z,72.46
2023-01-21T14:08:37.367Z,72.64
2023-01-21T14:11:16.664Z,72.75
2023-01-21T14:14:28.916Z,72.83
2023-01-21T14:17:23.899Z,73.10
2023-01-21T14:20:33.269Z,72.88
2023-01-21T14:23:37.132Z,73.17
2023-01-21T14:26:26.525Z,73.29
2023-01-21T14:29:09.683Z,73.38
2023-01-21T14:31:45.524Z,73.85
2023-01-21T14:34:21.067Z,73.95
2023-01-21T14:37:03.420Z,73.97
2023-01-21T14:39:47.416Z,73.60
2023-01-21T14:42:19.008Z,74.49
2023-01-21T14:45:05.960Z,74.38
2023-01-21T14:47:50.036Z,74.36
2023-01-21T14:50:53.777Z,74.55
2023-01-21T14:53:26.602Z,74.50
2023-01-21T14:56:13.537Z,74.50
2023-01-21T14:58:48.989Z,74.43
2023-01-21T15:01:39.617Z,74.78
2023-01-21T15:04:21.265Z,75.03
2023-01-21T15:06:54.888Z,75.20
2023-01-21T15:09:30.522Z,75.31
2023-01-21T15:12:03.541Z,75.63
2023-01-21T15:14:39.471Z,75.24
2023-01-21T15:18:03.935Z,75.52
2023-01-21T15:20:51.668Z,75.77
2023-01-21T15:23:36.780Z,76.07
2023-01-21T15:26:30.336Z,76.56
2023-01-21T15:29:34.614Z,76.08
2023-01-21T15:32:29.585Z,75.79
2023-01-21T15:35:04.340Z,76.20
2023-01-21T15:37:38.893Z,75.70
2023-01-21T15:40:26.912Z,75.99
2023-01-21T15:43:04.355Z,76.03
2023-01-21T15:45:47.286Z,76.72
2023-01-21T15:48:42.661Z,77.24
2023-01-21T15:51:30.481Z,77.68
2023-01-21T15:54:21.477Z,78.47
2023-01-21T15:57:08.749Z,79.31
2023-01-21T15:59:59.389Z,80.15
2023-01-21T16:02:32.703Z,80.35
2023-01-21T16:05:23.167Z,80.93
2023-01-21T16:08:12.267Z,81.38
2023-01-21T16:10:55.479Z,82.13
2023-01-21T16:13:37.353Z,82.72
2023-01-21T16:16:18.042Z,83.13
2023-01-21T16:18:56.085Z,83.50
2023-01-21T16:21:30.361Z,83.93
2023-01-21T16:24:10.989Z,84.44
2023-01-21T16:26:39.149Z,84.85
2023-01-21T16:29:13.197Z,85.14
2023-01-21T16:31:50.709Z,85.45
2023-01-21T16:34:40.653Z,85.61
2023-01-21T16:37:12.246Z,85.66
2023-01-21T16:39:42.914Z,85.71
2023-01-21T16:42:27.364Z,86.07
2023-01-21T16:44:55.612Z,86.11
2023-01-21T16:47:30.878Z,86.36
2023-01-21T16:49:59.088Z,86.56
2023-01-21T16:52:27.977Z,86.23
2023-01-21T16:54:57.627Z,86.43
2023-01-21T16:57:31.620Z,86.80
2023-01-21T17:00:02.500Z,86.85
2023-01-21T17:02:33.995Z,87.17
2023-01-21T17:05:05.901Z,87.08
2023-01-21T17:07:42.321Z,86.94
2023-01-21T17:10:23.418Z,86.76
2023-01-21T17:12:56.732Z,86.90
2023-01-21T17:15:31.369Z,86.75
2023-01-21T17:18:01.670Z,87.03
2023-01-21T17:20:41.532Z,87.34
2023-01-21T17:23:17.719Z,87.26
2023-01-21T17:25:56.666Z,87.40
2023-01-21T17:28:39.788Z,87.42
2023-01-21T17:31:27.673Z,87.42
2023-01-21T17:34:07.239Z,87.44
2023-01-21T17:36:38.957Z,87.67
2023-01-21T17:39:09.849Z,87.81
2023-01-21T17:41:41.684Z,87.99
2023-01-21T17:44:20.150Z,88.11
2023-01-21T17:46:51.116Z,88.41
2023-01-21T17:49:23.954Z,88.55
2023-01-21T17:51:56.587Z,88.45
2023-01-21T17:54:29.332Z,88.63
2023-01-21T17:57:01.025Z,88.97
2023-01-21T17:59:38.661Z,88.71
2023-01-21T18:02:12.604Z,88.73
2023-01-21T18:04:41.199Z,88.77
2023-01-21T18:07:22.757Z,89.24
2023-01-21T18:09:51.562Z,89.22
2023-01-21T18:12:21.167Z,89.18
2023-01-21T18:14:49.483Z,88.96
2023-01-21T18:17:21.155Z,89.21
2023-01-21T18:19:49.573Z,89.05
2023-01-21T18:22:24.552Z,89.07
2023-01-21T18:24:52.655Z,89.12
2023-01-21T18:27:26.008Z,88.86
2023-01-21T18:29:54.848Z,88.66
2023-01-21T18:32:22.997Z,88.52
2023-01-21T18:34:51.127Z,88.29
2023-01-21T18:37:21.183Z,88.71
2023-01-21T18:39:49.372Z,88.78
2023-01-21T18:42:19.271Z,88.38
2023-01-21T18:44:48.763Z,88.41
2023-01-21T18:47:20.430Z,88.14
2023-01-21T18:49:49.672Z,88.11
2023-01-21T18:52:21.677Z,88.06
2023-01-21T18:54:49.806Z,88.02
2023-01-21T18:57:22.478Z,88.12
2023-01-21T18:59:51.989Z,88.21
2023-01-21T19:02:21.975Z,88.31
2023-01-21T19:04:50.793Z,88.40
2023-01-21T19:07:22.294Z,88.61
2023-01-21T19:09:51.099Z,88.40
2023-01-21T19:12:24.170Z,88.45
2023-01-21T19:14:53.721Z,88.20
2023-01-21T19:17:27.358Z,88.31
2023-01-21T19:19:56.708Z,88.32
2023-01-21T19:22:25.108Z,88.36
2023-01-21T19:24:53.212Z,88.68
2023-01-21T19:27:31.417Z,88.66
2023-01-21T19:30:00.939Z,88.63
2023-01-21T19:32:29.151Z,88.23
2023-01-21T19:34:57.767Z,88.09
2023-01-21T19:37:26.494Z,88.44
2023-01-21T19:39:54.612Z,88.35
2023-01-21T19:42:22.735Z,88.38
2023-01-21T19:44:50.854Z,88.20
2023-01-21T19:47:28.703Z,88.29
2023-01-21T19:49:56.836Z,88.44
2023-01-21T19:52:25.132Z,88.52
2023-01-21T19:54:55.093Z,88.70
2023-01-21T19:57:23.663Z,89.09
2023-01-21T19:59:54.426Z,88.90
2023-01-21T20:02:23.917Z,88.75
2023-01-21T20:04:52.060Z,88.76
2023-01-21T20:07:22.022Z,88.87
2023-01-21T20:09:50.147Z,89.00
2023-01-21T20:12:18.441Z,88.95
2023-01-21T20:14:46.903Z,88.57
2023-01-21T20:17:15.251Z,88.31
2023-01-21T20:19:44.715Z,88.12
2023-01-21T20:22:14.300Z,88.30
2023-01-21T20:24:43.496Z,88.06
2023-01-21T20:27:15.165Z,88.12
2023-01-21T20:29:55.575Z,87.92
2023-01-21T20:32:30.535Z,87.92
2023-01-21T20:34:59.993Z,88.09
2023-01-21T20:37:28.171Z,88.30
2023-01-21T20:39:56.348Z,88.75
2023-01-21T20:42:26.268Z,88.75
2023-01-21T20:44:55.354Z,88.85
2023-01-21T20:47:37.692Z,88.14
2023-01-21T20:50:18.555Z,88.28
2023-01-21T20:52:47.710Z,88.24
2023-01-21T20:55:20.757Z,87.78
2023-01-21T20:57:49.428Z,87.18
2023-01-21T21:00:21.465Z,87.66
2023-01-21T21:02:50.001Z,87.36
2023-01-21T21:05:19.891Z,87.64
2023-01-21T21:07:48.572Z,87.25
2023-01-21T21:10:23.334Z,87.69
2023-01-21T21:12:51.710Z,87.88
2023-01-21T21:15:21.245Z,88.20
2023-01-21T21:17:49.932Z,87.90
2023-01-21T21:20:24.765Z,87.38
2023-01-21T21:22:53.112Z,87.03
2023-01-21T21:25:23.945Z,87.61
2023-01-21T21:27:52.668Z,87.98
2023-01-21T21:30:26.581Z,87.68
2023-01-21T21:32:57.483Z,88.04
2023-01-21T21:35:29.791Z,87.34
2023-01-21T21:37:59.841Z,87.69
2023-01-21T21:40:30.327Z,87.86
2023-01-21T21:43:17.086Z,88.01
2023-01-21T21:45:59.504Z,87.64
2023-01-21T21:48:41.247Z,88.05
2023-01-21T21:51:14.016Z,88.20
2023-01-21T21:53:42.948Z,88.54
2023-01-21T21:56:16.317Z,88.14
2023-01-21T21:58:45.439Z,88.47
2023-01-21T22:01:17.451Z,88.36
2023-01-21T22:03:46.051Z,88.42
2023-01-21T22:06:18.285Z,88.63
2023-01-21T22:08:46.813Z,88.61
2023-01-21T22:11:17.166Z,87.97
2023-01-21T22:13:50.034Z,88.42
2023-01-21T22:16:21.453Z,87.91
2023-01-21T22:18:49.585Z,87.84
2023-01-21T22:21:21.539Z,87.42
2023-01-21T22:23:50.293Z,87.49
2023-01-21T22:26:20.944Z,87.56
2023-01-21T22:28:51.192Z,87.54
2023-01-21T22:31:22.705Z,87.63
2023-01-21T22:33:52.082Z,87.70
2023-01-21T22:36:24.387Z,87.34
2023-01-21T22:38:53.159Z,87.33
2023-01-21T22:41:23.864Z,87.98
2023-01-21T22:43:52.573Z,88.26
2023-01-21T22:46:24.148Z,88.08
2023-01-21T22:48:53.814Z,87.59
2023-01-21T22:51:23.859Z,86.99
2023-01-21T22:53:53.816Z,86.69
2023-01-21T22:56:45.064Z,86.35
2023-01-21T22:59:13.233Z,86.87
2023-01-21T23:01:41.724Z,87.21
2023-01-21T23:04:10.719Z,87.79
2023-01-21T23:06:40.241Z,87.51
2023-01-21T23:09:11.305Z,87.53
2023-01-21T23:11:41.528Z,86.93
2023-01-21T23:14:10.586Z,86.86
2023-01-21T23:16:39.307Z,87.40
2023-01-21T23:19:07.550Z,87.88
2023-01-21T23:21:37.574Z,87.79
2023-01-21T23:24:08.808Z,88.07
2023-01-21T23:26:37.795Z,87.90
2023-01-21T23:29:05.938Z,87.83
2023-01-21T23:31:35.178Z,87.81
2023-01-21T23:34:03.617Z,87.87
2023-01-21T23:36:31.724Z,88.09
2023-01-21T23:38:59.842Z,87.82
2023-01-21T23:41:29.408Z,87.90
2023-01-21T23:44:00.694Z,87.79
2023-01-21T23:46:29.151Z,86.82
2023-01-21T23:48:57.566Z,86.99
2023-01-21T23:51:25.676Z,86.82
2023-01-21T23:53:53.812Z,86.62
2023-01-21T23:56:24.384Z,87.31
2023-01-21T23:58:54.675Z,87.58
